createdAt,value
2023-05-31T00:01:42.391Z,99.90
2023-05-31T00:04:09.514Z,99.90
2023-05-31T00:06:36.782Z,99.90
2023-05-31T00:09:04.355Z,99.90
2023-05-31T00:11:31.338Z,99.90
2023-05-31T00:13:58.323Z,99.90
2023-05-31T00:16:52.698Z,99.90
2023-05-31T00:19:12.433Z,99.90
2023-05-31T00:21:39.510Z,99.90
2023-05-31T00:24:06.835Z,99.90
2023-05-31T00:26:33.897Z,99.90
2023-05-31T00:29:01.020Z,99.90
2023-05-31T00:31:28.143Z,99.90
2023-05-31T00:33:55.125Z,99.90
2023-05-31T00:36:22.505Z,99.90
2023-05-31T00:38:49.872Z,99.90
2023-05-31T00:41:18.068Z,99.90
2023-05-31T00:43:45.094Z,99.90
2023-05-31T00:46:26.581Z,99.90
2023-05-31T00:48:54.260Z,99.90
2023-05-31T00:51:21.936Z,99.90
2023-05-31T00:53:49.259Z,99.90
2023-05-31T00:56:16.918Z,99.90
2023-05-31T00:58:46.397Z,99.90
2023-05-31T01:01:14.991Z,99.90
2023-05-31T01:03:42.696Z,99.90
2023-05-31T01:06:10.951Z,99.90
2023-05-31T01:08:39.520Z,99.90
2023-05-31T01:11:33.072Z,99.90
2023-05-31T01:14:16.071Z,99.90
2023-05-31T01:16:48.427Z,99.90
2023-05-31T01:19:42.123Z,99.90
2023-05-31T01:22:21.731Z,99.90
2023-05-31T01:25:07.475Z,99.90
2023-05-31T01:27:35.662Z,99.90
2023-05-31T01:30:05.800Z,99.90
2023-05-31T01:32:34.234Z,99.90
2023-05-31T01:35:04.344Z,99.90
2023-05-31T01:37:31.350Z,99.90
2023-05-31T01:39:59.779Z,99.90
2023-05-31T01:42:27.423Z,99.90
2023-05-31T01:44:56.068Z,99.90
2023-05-31T01:47:23.822Z,99.90
2023-05-31T01:49:53.551Z,99.90
2023-05-31T01:52:22.144Z,99.90
2023-05-31T01:54:49.304Z,99.90
2023-05-31T01:57:17.391Z,99.90
2023-05-31T01:59:47.392Z,99.90
2023-05-31T02:02:14.599Z,99.90
2023-05-31T02:04:42.337Z,99.90
2023-05-31T02:07:10.734Z,99.90
2023-05-31T02:09:37.792Z,99.90
2023-05-31T02:12:06.231Z,99.90
2023-05-31T02:14:33.261Z,99.90
2023-05-31T02:17:00.273Z,99.90
2023-05-31T02:19:27.509Z,99.90
2023-05-31T02:21:54.466Z,99.90
2023-05-31T02:24:21.408Z,99.90
2023-05-31T02:26:48.322Z,99.90
2023-05-31T02:29:15.320Z,99.90
2023-05-31T02:31:42.477Z,99.90
2023-05-31T02:34:10.624Z,99.90
2023-05-31T02:36:37.629Z,99.90
2023-05-31T02:39:06.083Z,99.90
2023-05-31T02:41:33.926Z,99.90
2023-05-31T02:44:00.909Z,99.90
2023-05-31T02:46:27.903Z,99.90
2023-05-31T02:48:54.865Z,99.90
2023-05-31T02:51:21.872Z,99.90
2023-05-31T02:54:07.375Z,99.90
2023-05-31T02:56:37.415Z,99.90
2023-05-31T02:59:13.579Z,99.90
2023-05-31T03:01:43.072Z,99.90
2023-05-31T03:04:26.695Z,99.90
2023-05-31T03:06:56.950Z,99.90
2023-05-31T03:09:23.994Z,99.90
2023-05-31T03:11:51.358Z,99.90
2023-05-31T03:14:20.562Z,99.90
2023-05-31T03:16:51.282Z,99.90
2023-05-31T03:19:18.615Z,99.90
2023-05-31T03:21:49.343Z,99.90
2023-05-31T03:24:16.376Z,99.90
2023-05-31T03:26:45.222Z,99.90
2023-05-31T03:29:12.476Z,99.90
2023-05-31T03:31:39.439Z,99.90
2023-05-31T03:34:07.159Z,99.90
2023-05-31T03:36:34.129Z,99.90
2023-05-31T03:39:07.160Z,99.90
2023-05-31T03:41:34.200Z,99.90
2023-05-31T03:44:01.207Z,99.90
2023-05-31T03:46:28.649Z,99.90
2023-05-31T03:48:56.338Z,99.90
2023-05-31T03:51:24.784Z,99.90
2023-05-31T03:53:51.807Z,99.90
2023-05-31T03:56:18.828Z,99.90
2023-05-31T03:58:45.970Z,99.90
2023-05-31T04:01:14.833Z,99.90
2023-05-31T04:03:42.073Z,99.90
2023-05-31T04:06:09.467Z,99.90
2023-05-31T04:08:36.629Z,99.90
2023-05-31T04:11:04.140Z,99.90
2023-05-31T04:13:31.440Z,99.90
2023-05-31T04:15:58.670Z,99.90
2023-05-31T04:18:25.694Z,99.90
2023-05-31T04:20:52.972Z,99.90
2023-05-31T04:23:19.922Z,99.90
2023-05-31T04:25:47.204Z,99.90
2023-05-31T04:28:16.313Z,99.90
2023-05-31T04:30:45.628Z,99.90
2023-05-31T04:33:13.409Z,99.90
2023-05-31T04:35:41.576Z,99.90
2023-05-31T04:38:09.306Z,99.90
2023-05-31T04:40:36.387Z,99.90
2023-05-31T04:43:04.018Z,99.90
2023-05-31T04:45:33.937Z,99.90
2023-05-31T04:48:03.076Z,99.90
2023-05-31T04:50:31.306Z,99.90
2023-05-31T04:52:59.127Z,99.90
2023-05-31T04:55:27.419Z,99.90
2023-05-31T04:57:55.332Z,99.90
2023-05-31T05:00:22.287Z,99.90
2023-05-31T05:03:10.080Z,99.90
2023-05-31T05:05:38.611Z,99.90
2023-05-31T05:08:05.771Z,99.90
2023-05-31T05:10:32.718Z,99.90
2023-05-31T05:12:59.759Z,99.90
2023-05-31T05:15:26.790Z,99.90
2023-05-31T05:17:53.768Z,99.90
2023-05-31T05:20:21.989Z,99.90
2023-05-31T05:22:53.161Z,99.90
2023-05-31T05:25:23.930Z,99.90
2023-05-31T05:27:51.288Z,99.90
2023-05-31T05:30:19.409Z,99.90
2023-05-31T05:32:48.255Z,99.90
2023-05-31T05:35:15.313Z,99.90
2023-05-31T05:37:42.301Z,99.90
2023-05-31T05:40:09.729Z,99.90
2023-05-31T05:42:39.966Z,99.90
2023-05-31T05:45:08.279Z,99.90
2023-05-31T05:47:38.320Z,99.90
2023-05-31T05:50:06.715Z,99.90
2023-05-31T05:52:33.799Z,99.90
2023-05-31T05:55:01.034Z,99.90
2023-05-31T05:57:29.006Z,99.90
2023-05-31T06:00:12.112Z,99.90
2023-05-31T06:02:42.043Z,99.90
2023-05-31T06:05:09.773Z,99.90
2023-05-31T06:07:36.853Z,99.90
2023-05-31T06:10:04.386Z,99.90
2023-05-31T06:12:34.153Z,99.90
2023-05-31T06:15:01.427Z,99.90
2023-05-31T06:17:28.518Z,99.90
2023-05-31T06:19:55.614Z,99.90
2023-05-31T06:22:22.617Z,99.90
2023-05-31T06:24:50.933Z,99.90
2023-05-31T06:27:18.077Z,99.90
2023-05-31T06:29:45.904Z,99.90
2023-05-31T06:32:31.411Z,99.90
2023-05-31T06:34:58.709Z,99.90
2023-05-31T06:37:25.661Z,99.90
2023-05-31T06:39:54.397Z,99.90
2023-05-31T06:42:22.800Z,99.90
2023-05-31T06:44:58.961Z,99.90
2023-05-31T06:47:54.983Z,99.90
2023-05-31T06:50:45.489Z,99.90
2023-05-31T06:53:30.987Z,99.90
2023-05-31T06:56:21.042Z,99.90
2023-05-31T06:58:49.246Z,99.90
2023-05-31T07:01:16.351Z,99.90
2023-05-31T07:03:43.461Z,99.90
2023-05-31T07:06:10.509Z,99.90
2023-05-31T07:08:38.456Z,99.90
2023-05-31T07:11:24.455Z,99.90
2023-05-31T07:13:51.664Z,99.90
2023-05-31T07:16:20.254Z,99.90
2023-05-31T07:18:48.550Z,99.90
2023-05-31T07:21:16.851Z,99.90
2023-05-31T07:23:43.868Z,99.90
2023-05-31T07:26:10.942Z,99.90
2023-05-31T07:28:38.303Z,99.90
2023-05-31T07:31:05.722Z,99.90
2023-05-31T07:33:32.988Z,99.90
2023-05-31T07:36:01.927Z,99.90
2023-05-31T07:38:29.734Z,99.90
2023-05-31T07:40:57.239Z,99.90
2023-05-31T07:43:27.782Z,99.90
2023-05-31T07:45:55.890Z,99.90
2023-05-31T07:48:23.081Z,99.90
2023-05-31T07:50:50.421Z,99.90
2023-05-31T07:53:17.812Z,99.90
2023-05-31T07:55:45.878Z,99.90
2023-05-31T07:58:13.087Z,99.90
2023-05-31T08:00:40.663Z,99.90
2023-05-31T08:03:07.845Z,99.90
2023-05-31T08:05:35.102Z,99.90
2023-05-31T08:08:02.083Z,99.90
2023-05-31T08:10:30.976Z,99.90
2023-05-31T08:12:57.974Z,99.90
2023-05-31T08:15:25.080Z,99.90
2023-05-31T08:17:52.171Z,99.90
2023-05-31T08:20:19.305Z,99.90
2023-05-31T08:22:46.510Z,99.90
2023-05-31T08:25:15.338Z,99.90
2023-05-31T08:27:42.427Z,99.90
2023-05-31T08:30:13.352Z,99.90
2023-05-31T08:32:44.171Z,99.90
2023-05-31T08:35:11.433Z,99.90
2023-05-31T08:37:39.069Z,99.90
2023-05-31T08:40:06.916Z,99.90
2023-05-31T08:42:53.163Z,99.90
2023-05-31T08:45:20.791Z,99.90
2023-05-31T08:47:56.843Z,99.90
2023-05-31T08:50:25.318Z,99.90
2023-05-31T08:52:52.466Z,99.90
2023-05-31T08:55:20.247Z,99.90
2023-05-31T08:57:47.766Z,99.90
2023-05-31T09:00:15.437Z,99.90
2023-05-31T09:02:42.845Z,99.90
2023-05-31T09:05:12.529Z,99.90
2023-05-31T09:07:40.182Z,99.90
2023-05-31T09:10:10.102Z,99.90
2023-05-31T09:12:38.058Z,99.90
2023-05-31T09:15:06.895Z,99.90
2023-05-31T09:17:34.093Z,99.90
2023-05-31T09:20:02.176Z,99.90
2023-05-31T09:22:29.280Z,99.90
2023-05-31T09:25:01.240Z,99.90
2023-05-31T09:27:37.046Z,99.90
2023-05-31T09:30:12.986Z,99.90
2023-05-31T09:32:40.698Z,99.90
2023-05-31T09:35:14.377Z,99.90
2023-05-31T09:37:45.544Z,99.90
2023-05-31T09:40:15.318Z,98.80
2023-05-31T09:42:50.066Z,98.70
2023-05-31T09:45:17.552Z,98.80
2023-05-31T09:47:45.021Z,97.00
2023-05-31T09:50:12.961Z,97.10
2023-05-31T09:52:40.025Z,97.60
2023-05-31T09:55:08.529Z,96.30
2023-05-31T09:57:41.906Z,97.00
2023-05-31T10:00:16.478Z,96.70
2023-05-31T10:02:54.408Z,94.80
2023-05-31T10:05:22.213Z,96.10
2023-05-31T10:07:54.217Z,95.70
2023-05-31T10:10:21.862Z,95.40
2023-05-31T10:13:00.674Z,95.00
2023-05-31T10:15:33.274Z,94.90
2023-05-31T10:18:08.244Z,96.30
2023-05-31T10:20:42.230Z,95.40
2023-05-31T10:23:21.244Z,94.30
2023-05-31T10:26:09.230Z,95.40
2023-05-31T10:28:44.827Z,93.70
2023-05-31T10:31:13.023Z,94.10
2023-05-31T10:33:46.313Z,94.10
2023-05-31T10:36:13.738Z,94.20
2023-05-31T10:38:51.018Z,93.10
2023-05-31T10:41:25.971Z,93.60
2023-05-31T10:44:00.487Z,93.50
2023-05-31T10:46:29.241Z,93.40
2023-05-31T10:49:00.890Z,93.00
2023-05-31T10:51:48.038Z,92.80
2023-05-31T10:54:20.448Z,93.00
2023-05-31T10:56:56.328Z,92.40
2023-05-31T10:59:30.486Z,93.90
2023-05-31T11:02:00.877Z,93.70
2023-05-31T11:04:28.307Z,93.30
2023-05-31T11:07:12.785Z,93.00
2023-05-31T11:09:40.800Z,91.20
2023-05-31T11:12:08.046Z,92.60
2023-05-31T11:14:35.552Z,92.90
2023-05-31T11:17:05.356Z,92.80
2023-05-31T11:19:35.124Z,93.30
2023-05-31T11:22:08.604Z,94.40
2023-05-31T11:24:39.147Z,92.50
2023-05-31T11:27:11.520Z,93.40
2023-05-31T11:29:53.811Z,92.70
2023-05-31T11:32:43.850Z,93.50
2023-05-31T11:35:15.441Z,93.20
2023-05-31T11:37:44.068Z,94.30
2023-05-31T11:40:14.225Z,93.00
2023-05-31T11:42:46.222Z,93.70
2023-05-31T11:45:21.583Z,94.10
2023-05-31T11:48:00.654Z,94.20
2023-05-31T11:50:27.821Z,95.00
2023-05-31T11:52:56.184Z,94.30
2023-05-31T11:55:23.200Z,94.60
2023-05-31T11:57:52.974Z,93.10
2023-05-31T12:00:22.573Z,93.40
2023-05-31T12:03:05.531Z,93.70
2023-05-31T12:05:32.705Z,94.20
2023-05-31T12:07:59.978Z,93.90
2023-05-31T12:10:28.857Z,93.10
2023-05-31T12:12:58.245Z,94.00
2023-05-31T12:15:30.803Z,93.60
2023-05-31T12:18:01.639Z,93.40
2023-05-31T12:20:32.167Z,94.00
2023-05-31T12:23:13.444Z,93.40
2023-05-31T12:25:51.147Z,93.70
2023-05-31T12:28:19.577Z,94.50
2023-05-31T12:30:52.722Z,94.00
2023-05-31T12:33:20.506Z,94.20
2023-05-31T12:35:48.552Z,94.10
2023-05-31T12:38:16.537Z,95.40
2023-05-31T12:40:45.337Z,94.70
2023-05-31T12:43:15.464Z,95.40
2023-05-31T12:45:43.181Z,95.50
2023-05-31T12:48:13.822Z,95.80
2023-05-31T12:50:47.857Z,95.70
2023-05-31T12:53:16.168Z,95.80
2023-05-31T12:55:44.050Z,96.80
2023-05-31T12:58:11.644Z,96.50
2023-05-31T13:00:40.130Z,96.40
2023-05-31T13:03:14.419Z,96.30
2023-05-31T13:05:41.799Z,96.50
2023-05-31T13:08:08.832Z,96.10
2023-05-31T13:10:37.351Z,96.20
2023-05-31T13:13:06.181Z,95.60
2023-05-31T13:15:33.380Z,97.10
2023-05-31T13:18:00.566Z,97.50
2023-05-31T13:20:27.634Z,96.70
2023-05-31T13:22:55.996Z,96.30
2023-05-31T13:25:25.280Z,96.80
2023-05-31T13:27:52.319Z,97.30
2023-05-31T13:30:19.429Z,97.60
2023-05-31T13:32:46.771Z,97.90
2023-05-31T13:35:13.849Z,97.60
2023-05-31T13:37:41.024Z,98.40
2023-05-31T13:40:08.536Z,97.90
2023-05-31T13:42:35.727Z,98.40
2023-05-31T13:45:02.672Z,98.60
2023-05-31T13:47:29.642Z,98.20
2023-05-31T13:49:56.687Z,98.60
2023-05-31T13:52:23.741Z,98.70
2023-05-31T13:54:50.667Z,98.60
2023-05-31T13:57:17.766Z,99.50
2023-05-31T13:59:44.819Z,99.10
2023-05-31T14:02:11.891Z,99.20
2023-05-31T14:04:38.908Z,99.30
2023-05-31T14:07:06.390Z,98.70
2023-05-31T14:09:33.386Z,98.80
2023-05-31T14:12:00.863Z,99.60
2023-05-31T14:14:27.970Z,99.30
2023-05-31T14:16:55.197Z,99.40
2023-05-31T14:19:22.403Z,99.90
2023-05-31T14:21:49.366Z,99.60
2023-05-31T14:24:17.036Z,99.90
2023-05-31T14:26:44.107Z,99.90
2023-05-31T14:29:11.112Z,99.70
2023-05-31T14:31:38.455Z,99.90
2023-05-31T14:34:05.872Z,99.90
2023-05-31T14:36:33.242Z,99.90
2023-05-31T14:39:00.720Z,99.90
2023-05-31T14:41:27.876Z,99.90
2023-05-31T14:43:54.887Z,99.90
2023-05-31T14:46:21.981Z,99.90
2023-05-31T14:48:49.091Z,99.90
2023-05-31T14:51:16.016Z,99.90
2023-05-31T14:53:42.977Z,99.90
2023-05-31T14:56:17.910Z,99.90
2023-05-31T14:58:47.566Z,99.90
2023-05-31T15:01:15.446Z,99.90
2023-05-31T15:03:42.574Z,99.90
2023-05-31T15:06:09.841Z,99.90
2023-05-31T15:08:37.278Z,99.90
2023-05-31T15:11:04.975Z,99.90
2023-05-31T15:13:32.123Z,99.90
2023-05-31T15:15:59.426Z,99.90
2023-05-31T15:18:26.636Z,99.90
2023-05-31T15:20:54.081Z,99.90
2023-05-31T15:23:21.131Z,99.90
2023-05-31T15:25:48.183Z,99.90
2023-05-31T15:28:15.163Z,99.90
2023-05-31T15:30:42.168Z,99.90
2023-05-31T15:33:09.186Z,99.90
2023-05-31T15:35:36.301Z,99.90
2023-05-31T15:38:03.480Z,99.90
2023-05-31T15:40:30.624Z,99.90
2023-05-31T15:42:57.752Z,99.90
2023-05-31T15:45:24.820Z,99.90
2023-05-31T15:47:51.883Z,99.90
2023-05-31T15:50:20.033Z,99.90
2023-05-31T15:52:47.122Z,99.90
2023-05-31T15:55:14.157Z,99.90
2023-05-31T15:57:41.198Z,99.90
2023-05-31T16:00:08.889Z,99.90
2023-05-31T16:02:38.971Z,99.90
2023-05-31T16:05:08.570Z,99.90
2023-05-31T16:07:35.822Z,99.90
2023-05-31T16:10:03.441Z,99.90
2023-05-31T16:12:30.551Z,99.90
2023-05-31T16:14:59.809Z,99.90
2023-05-31T16:17:26.891Z,99.90
2023-05-31T16:19:53.992Z,99.90
2023-05-31T16:22:21.111Z,99.90
2023-05-31T16:24:48.331Z,99.90
2023-05-31T16:27:15.802Z,99.90
2023-05-31T16:29:42.779Z,99.90
2023-05-31T16:32:10.165Z,99.90
2023-05-31T16:34:37.115Z,99.90
2023-05-31T16:37:04.975Z,99.90
2023-05-31T16:39:32.726Z,99.90
2023-05-31T16:42:00.129Z,99.90
2023-05-31T16:44:27.121Z,99.90
2023-05-31T16:46:54.334Z,99.90
2023-05-31T16:49:21.414Z,99.90
2023-05-31T16:51:48.448Z,99.90
2023-05-31T16:54:15.410Z,99.90
2023-05-31T16:56:42.463Z,99.90
2023-05-31T16:59:10.200Z,99.90
2023-05-31T17:01:37.259Z,99.90
2023-05-31T17:04:04.256Z,99.90
2023-05-31T17:06:31.379Z,99.90
2023-05-31T17:08:58.726Z,99.90
2023-05-31T17:11:27.401Z,99.90
2023-05-31T17:13:54.400Z,99.90
2023-05-31T17:16:21.435Z,99.90
2023-05-31T17:18:48.562Z,99.90
2023-05-31T17:21:16.174Z,99.90
2023-05-31T17:23:43.197Z,99.90
2023-05-31T17:26:10.127Z,99.90
2023-05-31T17:28:37.020Z,99.90
2023-05-31T17:31:04.835Z,99.90
2023-05-31T17:33:31.790Z,99.90
2023-05-31T17:36:00.328Z,99.90
2023-05-31T17:38:27.722Z,99.90
2023-05-31T17:40:54.669Z,99.90
2023-05-31T17:43:21.641Z,99.90
2023-05-31T17:45:50.552Z,99.90
2023-05-31T17:48:17.713Z,99.90
2023-05-31T17:50:44.712Z,99.90
2023-05-31T17:53:11.724Z,99.90
2023-05-31T17:55:38.993Z,99.90
2023-05-31T17:58:06.156Z,99.90
2023-05-31T18:00:33.088Z,99.90
2023-05-31T18:03:00.219Z,99.90
2023-05-31T18:05:27.254Z,99.90
2023-05-31T18:07:54.322Z,99.90
2023-05-31T18:10:21.388Z,99.90
2023-05-31T18:12:48.657Z,99.90
2023-05-31T18:15:16.001Z,99.90
2023-05-31T18:17:43.161Z,99.90
2023-05-31T18:20:10.489Z,99.90
2023-05-31T18:22:37.424Z,99.90
2023-05-31T18:25:04.694Z,99.90
2023-05-31T18:27:32.968Z,99.90
2023-05-31T18:30:00.241Z,99.90
2023-05-31T18:32:28.285Z,99.90
2023-05-31T18:34:55.444Z,99.90
2023-05-31T18:37:23.493Z,99.90
2023-05-31T18:39:50.534Z,99.90
2023-05-31T18:42:17.919Z,99.90
2023-05-31T18:44:46.886Z,99.90
2023-05-31T18:47:14.033Z,99.90
2023-05-31T18:49:41.007Z,99.90
2023-05-31T18:52:08.043Z,99.90
2023-05-31T18:54:35.006Z,99.90
2023-05-31T18:57:03.129Z,99.90
2023-05-31T18:59:31.053Z,99.90
2023-05-31T19:02:00.469Z,99.90
2023-05-31T19:04:27.798Z,99.90
2023-05-31T19:06:55.989Z,99.90
2023-05-31T19:09:23.371Z,99.90
2023-05-31T19:11:50.535Z,99.90
2023-05-31T19:14:17.946Z,99.90
2023-05-31T19:16:45.522Z,99.90
2023-05-31T19:19:13.709Z,99.90
2023-05-31T19:21:40.913Z,99.90
2023-05-31T19:24:08.419Z,99.90
2023-05-31T19:26:35.903Z,99.90
2023-05-31T19:29:04.153Z,99.90
2023-05-31T19:31:31.737Z,99.90
2023-05-31T19:34:00.059Z,99.90
2023-05-31T19:36:27.279Z,99.90
2023-05-31T19:38:54.404Z,99.90
2023-05-31T19:41:21.532Z,99.90
2023-05-31T19:43:48.702Z,99.90
2023-05-31T19:46:26.078Z,99.90
2023-05-31T19:48:53.771Z,99.90
2023-05-31T19:51:20.902Z,99.90
2023-05-31T19:53:47.901Z,99.90
2023-05-31T19:56:15.197Z,99.90
2023-05-31T19:58:42.205Z,99.90
2023-05-31T20:01:10.842Z,99.90
2023-05-31T20:03:38.592Z,99.90
2023-05-31T20:06:06.037Z,99.90
2023-05-31T20:08:33.808Z,99.90
2023-05-31T20:11:00.833Z,99.90
2023-05-31T20:13:27.897Z,99.90
2023-05-31T20:15:54.902Z,99.90
2023-05-31T20:18:23.750Z,99.90
2023-05-31T20:20:51.792Z,99.90
2023-05-31T20:23:19.494Z,99.90
2023-05-31T20:25:46.652Z,99.90
2023-05-31T20:28:14.117Z,99.90
2023-05-31T20:30:41.104Z,99.90
2023-05-31T20:33:08.208Z,99.90
2023-05-31T20:35:35.427Z,99.90
2023-05-31T20:38:02.842Z,99.90
2023-05-31T20:40:29.869Z,99.90
2023-05-31T20:42:56.941Z,99.90
2023-05-31T20:45:23.984Z,99.90
2023-05-31T20:47:51.507Z,99.90
2023-05-31T20:50:20.161Z,99.90
2023-05-31T20:52:47.423Z,99.90
2023-05-31T20:55:14.977Z,99.90
2023-05-31T20:57:42.541Z,99.90
2023-05-31T21:00:10.630Z,99.90
2023-05-31T21:02:37.740Z,99.90
2023-05-31T21:05:05.030Z,99.90
2023-05-31T21:07:31.988Z,99.90
2023-05-31T21:09:59.036Z,99.90
2023-05-31T21:12:26.314Z,99.90
2023-05-31T21:14:54.297Z,99.90
2023-05-31T21:17:21.678Z,99.90
2023-05-31T21:19:49.757Z,99.90
2023-05-31T21:22:16.775Z,99.90
2023-05-31T21:24:43.791Z,99.90
2023-05-31T21:27:10.775Z,99.90
2023-05-31T21:29:37.772Z,99.90
2023-05-31T21:32:05.015Z,99.90
2023-05-31T21:34:32.329Z,99.90
2023-05-31T21:36:59.759Z,99.90
2023-05-31T21:39:27.002Z,99.90
2023-05-31T21:41:54.556Z,99.90
2023-05-31T21:44:21.600Z,99.90
2023-05-31T21:46:48.690Z,99.90
2023-05-31T21:49:15.709Z,99.90
2023-05-31T21:51:42.741Z,99.90
2023-05-31T21:54:09.931Z,99.90
2023-05-31T21:56:36.930Z,99.90
2023-05-31T21:59:04.270Z,99.90
2023-05-31T22:01:31.234Z,99.90
2023-05-31T22:03:58.364Z,99.90
2023-05-31T22:06:26.272Z,99.90
2023-05-31T22:08:53.362Z,99.90
2023-05-31T22:11:21.641Z,99.90
2023-05-31T22:13:50.858Z,99.90
2023-05-31T22:16:22.055Z,99.90
2023-05-31T22:18:52.991Z,99.90
2023-05-31T22:21:22.489Z,99.90
2023-05-31T22:23:51.617Z,99.90
2023-05-31T22:26:22.425Z,99.90
2023-05-31T22:28:51.023Z,99.90
2023-05-31T22:31:18.931Z,99.90
2023-05-31T22:33:48.282Z,99.90
2023-05-31T22:36:16.092Z,99.90
2023-05-31T22:38:43.713Z,99.90
2023-05-31T22:41:11.027Z,99.90
2023-05-31T22:43:37.978Z,99.90
2023-05-31T22:46:05.072Z,99.90
2023-05-31T22:48:33.963Z,99.90
2023-05-31T22:51:02.441Z,99.90
2023-05-31T22:53:29.985Z,99.90
2023-05-31T22:55:56.951Z,99.90
2023-05-31T22:58:23.879Z,99.90
2023-05-31T23:00:50.996Z,99.90
2023-05-31T23:03:18.256Z,99.90
2023-05-31T23:05:46.764Z,99.90
2023-05-31T23:08:13.925Z,99.90
2023-05-31T23:10:41.662Z,99.90
2023-05-31T23:13:10.007Z,99.90
2023-05-31T23:15:38.343Z,99.90
2023-05-31T23:18:08.414Z,99.90
2023-05-31T23:20:38.927Z,99.90
2023-05-31T23:23:07.450Z,99.90
2023-05-31T23:25:34.713Z,99.90
2023-05-31T23:28:02.160Z,99.90
2023-05-31T23:30:29.207Z,99.90
2023-05-31T23:32:56.330Z,99.90
2023-05-31T23:35:23.509Z,99.90
2023-05-31T23:37:52.374Z,99.90
2023-05-31T23:40:19.579Z,99.90
2023-05-31T23:42:46.830Z,99.90
2023-05-31T23:45:14.223Z,99.90
2023-05-31T23:47:42.246Z,99.90
2023-05-31T23:50:10.245Z,99.90
2023-05-31T23:52:37.852Z,99.90
2023-05-31T23:55:05.643Z,99.90
2023-05-31T23:57:33.743Z,99.90
